Time;durP1;ratioP1;P1;durP2;ratioP2;P2;SDS_P1;SDS_P2;PMS_P1;PMS_P2;Temp;Humidity;BMP_temperature;BMP_pressure;BME280_temperature;BME280_humidity;BME280_pressure;Samples;Min_cycle;Max_cycle;Signal;HPM_P1;HPM_P2
2021/09/11 00:00:34;;;;;;;42.30;33.90;;;26.60;99.90;;;;;;5074606;28;20077;-85
2021/09/11 00:03:01;;;;;;;40.65;33.05;;;26.60;99.80;;;;;;5091847;28;20024;-85
2021/09/11 00:05:27;;;;;;;42.75;32.78;;;26.70;99.90;;;;;;5092884;28;20031;-85
2021/09/11 00:07:54;;;;;;;44.22;34.78;;;26.70;99.80;;;;;;5091740;28;20543;-85
2021/09/11 00:10:20;;;;;;;44.72;34.78;;;26.60;99.80;;;;;;5091653;28;20031;-85
2021/09/11 00:12:48;;;;;;;42.53;34.42;;;26.60;99.80;;;;;;5091239;28;20435;-85
2021/09/11 00:15:17;;;;;;;43.28;35.33;;;26.70;99.90;;;;;;5093185;28;20032;-85
2021/09/11 00:17:43;;;;;;;39.17;33.13;;;26.60;99.80;;;;;;5091134;28;20025;-85
2021/09/11 00:20:10;;;;;;;43.45;35.85;;;26.70;99.90;;;;;;5092736;28;20316;-84
2021/09/11 00:22:36;;;;;;;42.58;33.78;;;26.60;99.80;;;;;;5074452;28;20032;-85
2021/09/11 00:25:03;;;;;;;43.47;35.13;;;26.60;99.80;;;;;;5092896;28;20020;-85
2021/09/11 00:27:28;;;;;;;44.60;35.28;;;26.60;99.80;;;;;;5092794;28;20091;-85
2021/09/11 00:29:54;;;;;;;44.60;35.25;;;26.70;99.90;;;;;;5092561;28;20032;-85
2021/09/11 00:32:20;;;;;;;42.25;35.00;;;26.60;99.80;;;;;;5092885;28;20450;-85
2021/09/11 00:34:45;;;;;;;45.75;35.15;;;26.70;99.80;;;;;;5074277;28;20474;-85
2021/09/11 00:37:11;;;;;;;44.20;35.28;;;26.70;99.90;;;;;;5091711;28;20032;-85
2021/09/11 00:39:37;;;;;;;41.60;34.95;;;26.60;99.90;;;;;;5091160;28;20044;-86
2021/09/11 00:42:03;;;;;;;45.20;34.95;;;26.60;99.80;;;;;;5091426;28;20497;-85
2021/09/11 00:44:29;;;;;;;42.92;35.10;;;26.60;99.80;;;;;;5095087;28;20075;-85
2021/09/11 00:46:55;;;;;;;42.67;34.33;;;26.60;99.80;;;;;;5094569;28;20473;-85
2021/09/11 00:49:20;;;;;;;43.30;35.63;;;26.70;99.90;;;;;;5095084;28;20081;-85
2021/09/11 00:51:47;;;;;;;42.03;34.42;;;26.60;99.80;;;;;;5095962;28;20095;-85
2021/09/11 00:54:13;;;;;;;43.97;34.83;;;26.70;99.90;;;;;;5095896;28;20016;-85
2021/09/11 00:56:39;;;;;;;41.45;35.17;;;26.60;99.80;;;;;;5095692;28;20024;-87
2021/09/11 00:59:04;;;;;;;45.75;36.42;;;26.70;99.90;;;;;;5095692;28;20036;-85
2021/09/11 01:01:30;;;;;;;42.63;35.13;;;26.60;99.80;;;;;;5094858;28;20028;-85
2021/09/11 01:03:56;;;;;;;44.70;34.70;;;26.60;99.90;;;;;;5094382;28;20028;-85
2021/09/11 01:06:23;;;;;;;45.22;34.88;;;26.60;99.90;;;;;;5096026;28;20097;-85
2021/09/11 01:08:49;;;;;;;42.83;34.17;;;26.70;99.90;;;;;;5094037;28;20032;-85
2021/09/11 01:11:15;;;;;;;44.30;35.08;;;26.70;99.90;;;;;;5077901;28;20035;-85
2021/09/11 01:13:41;;;;;;;41.45;33.10;;;26.70;99.90;;;;;;5095538;28;20035;-87
2021/09/11 01:16:07;;;;;;;42.25;33.72;;;26.60;99.90;;;;;;5094271;28;20028;-85
2021/09/11 01:18:33;;;;;;;40.42;32.75;;;26.60;99.90;;;;;;5093942;28;20555;-85
2021/09/11 01:21:00;;;;;;;41.17;33.72;;;26.60;99.90;;;;;;5094199;28;20020;-85
2021/09/11 01:23:26;;;;;;;41.80;33.30;;;26.60;99.90;;;;;;5095783;28;20051;-85
2021/09/11 01:25:53;;;;;;;43.17;34.10;;;26.70;99.90;;;;;;5095129;28;20462;-85
2021/09/11 01:28:19;;;;;;;39.75;32.15;;;26.60;99.90;;;;;;5077580;28;20119;-85
2021/09/11 01:30:46;;;;;;;39.00;31.58;;;26.60;99.90;;;;;;5095053;28;20020;-85
2021/09/11 01:33:12;;;;;;;38.63;32.35;;;26.60;99.90;;;;;;5077182;28;20036;-85
2021/09/11 01:35:38;;;;;;;40.05;32.45;;;26.70;99.90;;;;;;5095317;28;20110;-85
2021/09/11 01:38:05;;;;;;;37.60;31.60;;;26.60;99.90;;;;;;5093681;28;20039;-85
2021/09/11 01:40:31;;;;;;;39.20;31.40;;;26.60;99.90;;;;;;5078236;28;20032;-86
2021/09/11 01:42:57;;;;;;;38.58;32.13;;;26.60;99.90;;;;;;5093987;28;20032;-86
2021/09/11 01:45:23;;;;;;;38.75;30.85;;;26.60;99.90;;;;;;5095574;28;20024;-86
2021/09/11 01:47:50;;;;;;;37.50;29.77;;;26.60;99.90;;;;;;5094842;28;20085;-86
2021/09/11 01:50:20;;;;;;;35.65;29.40;;;26.70;99.90;;;;;;5093820;28;20111;-86
2021/09/11 01:52:47;;;;;;;35.20;29.60;;;26.60;99.90;;;;;;5095196;28;20046;-87
2021/09/11 01:55:14;;;;;;;35.00;28.63;;;26.60;99.90;;;;;;5092799;28;20045;-86
2021/09/11 01:57:42;;;;;;;36.83;30.08;;;26.60;99.90;;;;;;5093514;28;20024;-86
2021/09/11 02:00:09;;;;;;;36.08;29.73;;;26.60;99.90;;;;;;5076702;28;20040;-84
2021/09/11 02:02:36;;;;;;;34.75;28.20;;;26.60;99.90;;;;;;5095450;28;20067;-84
2021/09/11 02:05:02;;;;;;;38.22;30.17;;;26.70;99.90;;;;;;5076522;28;20087;-85
2021/09/11 02:07:27;;;;;;;34.75;29.05;;;26.60;99.90;;;;;;5093439;28;20474;-85
2021/09/11 02:09:53;;;;;;;35.72;28.33;;;26.60;99.90;;;;;;5076425;28;20041;-85
2021/09/11 02:12:18;;;;;;;34.35;28.25;;;26.60;99.90;;;;;;5093760;28;20025;-85
2021/09/11 02:14:44;;;;;;;33.60;27.67;;;26.60;99.90;;;;;;5076462;28;20032;-85
2021/09/11 02:17:10;;;;;;;33.20;27.90;;;26.60;99.90;;;;;;5093345;28;20055;-85
2021/09/11 02:19:36;;;;;;;31.25;26.88;;;26.60;99.90;;;;;;5094423;28;20067;-85
2021/09/11 02:22:03;;;;;;;31.25;26.58;;;26.60;99.90;;;;;;5094412;28;20377;-85
2021/09/11 02:24:29;;;;;;;34.10;27.23;;;26.60;99.90;;;;;;5076472;28;20051;-85
2021/09/11 02:26:56;;;;;;;31.67;25.15;;;26.60;99.90;;;;;;5094108;28;20474;-84
2021/09/11 02:29:21;;;;;;;29.73;24.85;;;26.60;99.90;;;;;;5094115;28;20508;-85
2021/09/11 02:31:47;;;;;;;31.70;25.15;;;26.60;99.90;;;;;;5075825;28;20140;-87
2021/09/11 02:34:13;;;;;;;29.58;23.92;;;26.60;99.90;;;;;;5093993;28;20028;-85
2021/09/11 02:36:39;;;;;;;30.45;24.60;;;26.60;99.90;;;;;;5076280;28;20127;-85
2021/09/11 02:39:06;;;;;;;28.70;23.95;;;26.60;99.90;;;;;;5093577;28;20131;-85
2021/09/11 02:41:32;;;;;;;28.17;22.95;;;26.60;99.90;;;;;;5093847;28;20028;-85
2021/09/11 02:43:58;;;;;;;28.05;22.90;;;26.60;99.90;;;;;;5092295;28;20079;-85
2021/09/11 02:46:23;;;;;;;28.58;22.73;;;26.60;99.90;;;;;;5093824;28;20052;-85
2021/09/11 02:48:49;;;;;;;27.92;22.20;;;26.60;99.90;;;;;;5093750;28;20060;-86
2021/09/11 02:51:15;;;;;;;27.20;21.45;;;26.60;99.90;;;;;;5075955;28;20028;-84
2021/09/11 02:53:41;;;;;;;27.48;22.20;;;26.60;99.90;;;;;;5092586;28;20032;-85
2021/09/11 02:56:07;;;;;;;26.23;20.40;;;26.60;99.90;;;;;;5092530;28;20355;-85
2021/09/11 02:58:32;;;;;;;26.38;20.98;;;26.60;99.90;;;;;;5075819;28;20036;-85
2021/09/11 03:00:58;;;;;;;25.92;20.75;;;26.60;99.90;;;;;;5092152;28;20036;-85
2021/09/11 03:03:24;;;;;;;26.63;21.08;;;26.60;99.90;;;;;;5059276;28;20484;-85
2021/09/11 03:05:49;;;;;;;23.48;19.42;;;26.60;99.90;;;;;;5092914;28;20032;-85
2021/09/11 03:08:15;;;;;;;25.30;19.30;;;26.60;99.90;;;;;;5092261;28;20075;-85
2021/09/11 03:10:40;;;;;;;22.52;18.48;;;26.60;99.90;;;;;;5092484;28;20111;-85
2021/09/11 03:13:06;;;;;;;22.00;18.58;;;26.60;99.90;;;;;;5092340;28;20075;-86
2021/09/11 03:15:32;;;;;;;27.45;19.92;;;26.60;99.90;;;;;;5092677;28;20418;-85
2021/09/11 03:17:57;;;;;;;24.05;18.98;;;26.60;99.90;;;;;;5074730;28;20082;-86
2021/09/11 03:20:23;;;;;;;25.60;18.50;;;26.60;99.90;;;;;;5092025;28;20063;-86
2021/09/11 03:22:48;;;;;;;23.38;18.77;;;26.60;99.90;;;;;;5091825;28;20392;-84
2021/09/11 03:25:14;;;;;;;24.20;18.55;;;26.60;99.90;;;;;;5091807;28;20028;-85
2021/09/11 03:27:40;;;;;;;22.85;17.60;;;26.60;99.90;;;;;;5092365;28;20068;-85
2021/09/11 03:30:07;;;;;;;20.02;16.83;;;26.60;99.90;;;;;;5091842;28;20032;-85
2021/09/11 03:32:33;;;;;;;23.23;17.80;;;26.60;99.90;;;;;;5075530;28;20036;-85
2021/09/11 03:34:58;;;;;;;20.75;17.13;;;26.60;99.90;;;;;;5058076;28;20496;-86
2021/09/11 03:37:27;;;;;;;23.15;16.95;;;26.60;99.90;;;;;;5093490;28;20044;-85
2021/09/11 03:39:53;;;;;;;22.63;17.02;;;26.60;99.90;;;;;;5092752;28;20093;-85
2021/09/11 03:42:18;;;;;;;20.33;16.50;;;26.60;99.90;;;;;;5092663;28;20032;-85
2021/09/11 03:44:44;;;;;;;20.52;16.25;;;26.50;99.90;;;;;;5093087;28;20432;-85
2021/09/11 03:47:10;;;;;;;21.98;15.02;;;26.50;99.90;;;;;;5091548;28;20032;-85
2021/09/11 03:49:35;;;;;;;19.67;15.98;;;26.50;99.90;;;;;;5091519;28;20071;-85
2021/09/11 03:52:01;;;;;;;20.45;16.02;;;26.60;99.90;;;;;;5091529;28;20032;-85
2021/09/11 03:54:27;;;;;;;18.58;15.05;;;26.60;99.90;;;;;;5091669;28;20486;-85
2021/09/11 03:56:52;;;;;;;18.88;15.02;;;26.50;99.90;;;;;;5074815;28;20085;-84
2021/09/11 03:59:18;;;;;;;17.90;14.57;;;26.60;99.90;;;;;;5091119;28;20036;-86
2021/09/11 04:01:43;;;;;;;19.45;14.93;;;26.50;99.90;;;;;;5092963;28;20107;-86
2021/09/11 04:04:09;;;;;;;18.23;14.45;;;26.50;99.90;;;;;;5091363;28;20492;-86
2021/09/11 04:06:35;;;;;;;17.77;14.45;;;26.60;99.90;;;;;;5092165;28;20543;-85
2021/09/11 04:09:00;;;;;;;18.10;14.23;;;26.50;99.90;;;;;;5074571;28;20028;-86
2021/09/11 04:11:26;;;;;;;18.25;14.35;;;26.50;99.90;;;;;;5074491;28;20398;-84
2021/09/11 04:13:51;;;;;;;17.67;13.52;;;26.50;99.90;;;;;;5074776;28;20119;-85
2021/09/11 04:16:17;;;;;;;16.38;13.35;;;26.60;99.90;;;;;;5057739;28;20544;-85
2021/09/11 04:18:43;;;;;;;16.65;12.48;;;26.50;99.90;;;;;;5093799;28;20044;-86
2021/09/11 04:21:09;;;;;;;15.02;13.00;;;26.60;99.90;;;;;;5095064;28;20052;-84
2021/09/11 04:23:34;;;;;;;15.15;12.73;;;26.50;99.90;;;;;;5096773;28;20028;-85
2021/09/11 04:26:00;;;;;;;17.33;13.10;;;26.50;99.90;;;;;;5095121;28;20024;-86
2021/09/11 04:28:26;;;;;;;17.38;12.63;;;26.50;99.90;;;;;;5095656;28;20028;-85
2021/09/11 04:30:51;;;;;;;16.42;12.15;;;26.50;99.90;;;;;;5078285;28;20025;-85
2021/09/11 04:33:17;;;;;;;15.82;12.48;;;26.50;99.90;;;;;;5077826;28;20042;-85
2021/09/11 04:35:43;;;;;;;17.00;12.15;;;26.60;99.90;;;;;;5095388;28;20080;-85
2021/09/11 04:38:08;;;;;;;17.17;13.02;;;26.50;99.90;;;;;;5095843;28;20053;-86
2021/09/11 04:40:34;;;;;;;16.17;12.10;;;26.50;99.90;;;;;;5078767;28;20122;-85
2021/09/11 04:43:00;;;;;;;14.50;11.35;;;26.50;99.90;;;;;;5095197;28;20050;-86
2021/09/11 04:45:26;;;;;;;13.25;10.93;;;26.50;99.90;;;;;;5096469;28;20039;-85
2021/09/11 04:47:51;;;;;;;14.85;11.70;;;26.50;99.90;;;;;;5078166;28;20036;-86
2021/09/11 04:50:18;;;;;;;14.00;10.63;;;26.60;99.90;;;;;;5096033;28;20032;-85
2021/09/11 04:52:44;;;;;;;14.68;11.07;;;26.60;99.90;;;;;;5096336;28;20066;-85
2021/09/11 04:55:10;;;;;;;12.45;10.85;;;26.50;99.90;;;;;;5077880;28;20032;-86
2021/09/11 04:57:36;;;;;;;14.32;10.02;;;26.60;99.90;;;;;;5096104;28;20043;-86
2021/09/11 05:00:04;;;;;;;14.48;11.20;;;26.50;99.90;;;;;;5094837;28;20462;-87
2021/09/11 05:02:29;;;;;;;13.50;10.05;;;26.60;99.90;;;;;;5096002;28;20053;-86
2021/09/11 05:04:55;;;;;;;14.88;10.50;;;26.50;99.90;;;;;;5094561;28;20032;-86
2021/09/11 05:07:21;;;;;;;14.07;10.57;;;26.50;99.90;;;;;;5094420;28;20039;-86
2021/09/11 05:09:50;;;;;;;15.40;10.52;;;26.60;99.90;;;;;;5077703;28;20046;-86
2021/09/11 05:12:15;;;;;;;13.35;10.30;;;26.50;99.90;;;;;;5077401;28;20024;-86
2021/09/11 05:14:41;;;;;;;13.13;10.38;;;26.50;99.90;;;;;;5094721;28;20524;-86
2021/09/11 05:17:07;;;;;;;13.10;10.15;;;26.50;99.90;;;;;;5060782;28;20056;-86
2021/09/11 05:19:32;;;;;;;14.07;10.18;;;26.50;99.90;;;;;;5095629;28;20088;-86
2021/09/11 05:21:58;;;;;;;12.55;9.63;;;26.60;99.90;;;;;;5095474;28;20499;-86
2021/09/11 05:24:23;;;;;;;14.52;9.63;;;26.50;99.90;;;;;;5094171;28;20601;-86
2021/09/11 05:26:49;;;;;;;10.75;9.18;;;26.50;99.90;;;;;;5077885;28;20462;-86
2021/09/11 05:29:15;;;;;;;12.05;9.93;;;26.50;99.90;;;;;;5059960;28;20470;-86
2021/09/11 05:31:40;;;;;;;13.15;9.80;;;26.50;99.90;;;;;;5093905;28;20028;-86
2021/09/11 05:34:06;;;;;;;10.63;8.45;;;26.50;99.90;;;;;;5093937;28;20115;-87
2021/09/11 05:36:33;;;;;;;11.00;8.60;;;26.60;99.90;;;;;;5094364;28;20445;-86
2021/09/11 05:38:59;;;;;;;11.35;8.85;;;26.50;99.90;;;;;;5094314;28;20505;-85
2021/09/11 05:41:25;;;;;;;10.48;8.68;;;26.50;99.90;;;;;;5094681;28;20081;-86
2021/09/11 05:43:50;;;;;;;12.90;8.57;;;26.60;99.90;;;;;;5094171;28;20028;-86
2021/09/11 05:46:17;;;;;;;11.65;8.48;;;26.50;99.90;;;;;;5093689;28;20029;-86
2021/09/11 05:48:42;;;;;;;10.30;8.35;;;26.50;99.90;;;;;;5095042;28;20476;-86
2021/09/11 05:51:08;;;;;;;10.43;8.80;;;26.50;99.90;;;;;;5076769;28;20081;-87
2021/09/11 05:53:33;;;;;;;10.15;8.20;;;26.50;99.90;;;;;;5076817;28;20101;-86
2021/09/11 05:55:59;;;;;;;11.38;8.77;;;26.50;99.90;;;;;;5093750;28;20053;-86
2021/09/11 05:58:26;;;;;;;9.10;8.10;;;26.60;99.90;;;;;;5094922;28;20077;-86
2021/09/11 06:00:51;;;;;;;11.18;8.32;;;26.50;99.90;;;;;;5076934;28;20080;-86
2021/09/11 06:03:17;;;;;;;9.45;7.45;;;26.50;99.90;;;;;;5093422;28;20466;-87
2021/09/11 06:05:43;;;;;;;10.23;7.63;;;26.60;99.90;;;;;;5093517;28;20028;-86
2021/09/11 06:08:08;;;;;;;10.50;8.38;;;26.60;99.90;;;;;;5094937;28;20063;-86
2021/09/11 06:10:34;;;;;;;9.82;7.57;;;26.50;99.90;;;;;;5094531;28;20367;-86
2021/09/11 06:13:00;;;;;;;10.13;7.35;;;26.50;99.90;;;;;;5093357;28;20035;-86
2021/09/11 06:15:26;;;;;;;10.82;7.72;;;26.50;99.90;;;;;;5092122;28;20028;-86
2021/09/11 06:17:52;;;;;;;7.95;7.15;;;26.50;99.90;;;;;;5094286;28;20028;-86
2021/09/11 06:20:18;;;;;;;10.20;7.65;;;26.50;99.90;;;;;;5094169;28;20056;-87
2021/09/11 06:22:44;;;;;;;8.02;6.75;;;26.50;99.90;;;;;;5093353;28;20032;-86
2021/09/11 06:25:11;;;;;;;7.90;6.75;;;26.50;99.90;;;;;;5093734;28;20146;-86
2021/09/11 06:27:37;;;;;;;8.52;6.80;;;26.60;99.90;;;;;;5093357;28;20020;-87
2021/09/11 06:30:03;;;;;;;8.18;7.20;;;26.50;99.90;;;;;;5094419;28;20017;-87
2021/09/11 06:32:30;;;;;;;8.23;6.80;;;26.50;99.90;;;;;;5059510;28;20036;-87
2021/09/11 06:34:56;;;;;;;9.48;6.57;;;26.50;99.90;;;;;;5076162;28;20024;-87
2021/09/11 06:37:21;;;;;;;8.50;6.82;;;26.50;99.90;;;;;;5057365;28;20081;-86
2021/09/11 06:39:47;;;;;;;11.80;7.85;;;26.60;99.90;;;;;;5091489;28;20044;-86
2021/09/11 06:42:14;;;;;;;12.18;8.90;;;26.50;99.90;;;;;;5075353;28;20126;-87
2021/09/11 06:44:40;;;;;;;12.88;9.25;;;26.50;99.90;;;;;;5092965;28;20028;-86
2021/09/11 06:47:06;;;;;;;13.75;9.63;;;26.50;99.90;;;;;;5092758;28;20462;-87
2021/09/11 06:49:32;;;;;;;12.70;9.40;;;26.50;99.90;;;;;;5092434;28;20073;-86
2021/09/11 06:51:57;;;;;;;14.43;10.32;;;26.50;99.90;;;;;;5074694;28;20035;-86
2021/09/11 06:54:23;;;;;;;13.13;10.30;;;26.60;99.90;;;;;;5093058;28;20474;-86
2021/09/11 06:56:48;;;;;;;13.85;10.48;;;26.50;99.90;;;;;;5092122;28;20059;-86
2021/09/11 06:59:14;;;;;;;14.90;10.35;;;26.50;99.90;;;;;;5093125;28;20036;-87
2021/09/11 07:01:40;;;;;;;14.77;10.80;;;26.50;99.90;;;;;;5092541;28;20028;-86
2021/09/11 07:04:05;;;;;;;13.95;10.93;;;26.60;99.90;;;;;;5075412;28;20024;-86
2021/09/11 07:06:31;;;;;;;14.23;10.93;;;26.50;99.90;;;;;;5075105;28;20382;-86
2021/09/11 07:08:57;;;;;;;16.05;12.63;;;26.50;99.90;;;;;;5092450;28;20028;-86
2021/09/11 07:11:23;;;;;;;19.13;13.15;;;26.50;99.90;;;;;;5092176;28;20031;-86
2021/09/11 07:13:48;;;;;;;17.15;12.82;;;26.50;99.90;;;;;;5092116;28;20462;-86
2021/09/11 07:16:16;;;;;;;16.13;12.95;;;26.50;99.90;;;;;;5075141;28;20025;-85
2021/09/11 07:18:42;;;;;;;16.75;11.93;;;26.50;99.90;;;;;;5092381;28;20040;-86
2021/09/11 07:21:08;;;;;;;17.92;13.52;;;26.50;99.90;;;;;;5091868;28;20117;-86
2021/09/11 07:23:36;;;;;;;19.02;14.32;;;26.50;99.90;;;;;;5075275;28;20067;-86
2021/09/11 07:26:01;;;;;;;18.15;14.32;;;26.50;99.90;;;;;;5093653;28;20028;-86
2021/09/11 07:28:27;;;;;;;19.70;14.32;;;26.50;99.90;;;;;;5093043;28;20085;-86
2021/09/11 07:30:53;;;;;;;19.40;14.52;;;26.60;99.90;;;;;;5058610;28;20052;-86
2021/09/11 07:33:19;;;;;;;19.33;14.48;;;26.50;99.90;;;;;;5091707;28;20107;-88
2021/09/11 07:35:45;;;;;;;18.77;15.13;;;26.50;99.90;;;;;;5075069;28;20481;-85
2021/09/11 07:38:11;;;;;;;20.42;15.35;;;26.50;99.90;;;;;;5091918;28;20513;-90
2021/09/11 07:40:37;;;;;;;19.50;15.18;;;26.50;99.90;;;;;;5090860;28;20028;-83
2021/09/11 07:43:05;;;;;;;21.80;16.35;;;26.50;99.90;;;;;;5075304;28;20032;-83
2021/09/11 07:45:30;;;;;;;22.88;17.55;;;26.50;99.90;;;;;;5058542;28;20465;-83
2021/09/11 07:48:01;;;;;;;25.33;18.45;;;26.50;99.90;;;;;;5091706;28;20028;-84
2021/09/11 07:50:28;;;;;;;23.08;18.50;;;26.50;99.90;;;;;;5092881;28;20060;-84
2021/09/11 07:52:54;;;;;;;22.60;18.00;;;26.50;99.90;;;;;;5092344;28;20028;-84
2021/09/11 07:55:20;;;;;;;25.95;19.88;;;26.50;99.90;;;;;;5093053;28;20173;-84
2021/09/11 07:57:46;;;;;;;23.30;18.70;;;26.50;99.90;;;;;;5092890;28;20498;-83
2021/09/11 08:00:12;;;;;;;24.63;19.70;;;26.50;99.90;;;;;;5093155;28;20120;-83
2021/09/11 08:02:38;;;;;;;27.33;21.42;;;26.50;99.90;;;;;;5091628;28;20470;-83
2021/09/11 08:05:04;;;;;;;27.90;21.70;;;26.50;99.90;;;;;;5093074;28;20037;-83
2021/09/11 08:07:29;;;;;;;28.55;21.58;;;26.50;99.90;;;;;;5091663;28;20024;-84
2021/09/11 08:09:56;;;;;;;27.98;22.55;;;26.50;99.90;;;;;;5075098;28;20032;-83
2021/09/11 08:12:22;;;;;;;29.58;22.42;;;26.50;99.90;;;;;;5093108;28;20154;-85
2021/09/11 08:14:48;;;;;;;32.88;23.67;;;26.50;99.90;;;;;;5093152;28;20028;-84
2021/09/11 08:17:13;;;;;;;28.88;23.02;;;26.50;99.90;;;;;;5091823;28;20490;-83
2021/09/11 08:19:39;;;;;;;29.48;24.08;;;26.50;99.90;;;;;;5092339;28;20058;-84
2021/09/11 08:22:04;;;;;;;33.35;25.45;;;26.50;99.90;;;;;;5074885;28;20038;-84
2021/09/11 08:24:30;;;;;;;29.30;23.83;;;26.50;99.90;;;;;;5092699;28;20385;-84
2021/09/11 08:26:56;;;;;;;30.33;23.98;;;26.50;99.90;;;;;;5092901;28;20032;-84
2021/09/11 08:29:21;;;;;;;30.17;23.77;;;26.50;99.90;;;;;;5091333;28;20089;-83
2021/09/11 08:31:47;;;;;;;30.67;24.23;;;26.50;99.90;;;;;;5092312;28;20508;-83
2021/09/11 08:34:13;;;;;;;32.45;24.35;;;26.50;99.90;;;;;;5074925;28;20024;-85
2021/09/11 08:36:38;;;;;;;30.40;24.02;;;26.50;99.90;;;;;;5074690;28;20576;-83
2021/09/11 08:39:04;;;;;;;31.55;24.42;;;26.50;99.90;;;;;;5092635;28;20040;-83
2021/09/11 08:41:31;;;;;;;28.50;24.25;;;26.50;99.90;;;;;;5091368;28;20078;-83
2021/09/11 08:43:59;;;;;;;29.25;24.10;;;26.50;99.90;;;;;;5092825;28;20092;-83
2021/09/11 08:46:27;;;;;;;30.83;25.10;;;26.50;99.90;;;;;;5074750;28;20028;-83
2021/09/11 08:48:52;;;;;;;31.20;24.48;;;26.50;99.90;;;;;;5074835;28;20035;-83
2021/09/11 08:51:18;;;;;;;28.20;23.95;;;26.50;99.90;;;;;;5091641;28;20032;-83
2021/09/11 08:53:44;;;;;;;28.73;23.42;;;26.50;99.90;;;;;;5092686;28;20543;-83
2021/09/11 08:56:10;;;;;;;29.92;23.40;;;26.50;99.90;;;;;;5090952;28;20496;-84
2021/09/11 08:58:35;;;;;;;30.83;24.77;;;26.50;99.90;;;;;;5074147;28;20044;-84
2021/09/11 09:01:02;;;;;;;31.58;25.70;;;26.50;99.90;;;;;;5091338;28;20031;-83
2021/09/11 09:03:39;;;;;;;30.40;24.75;;;26.50;99.90;;;;;;5092297;28;20043;-85
2021/09/11 09:06:25;;;;;;;34.00;26.48;;;26.50;99.90;;;;;;5094787;28;20063;-83
2021/09/11 09:09:12;;;;;;;32.22;25.33;;;26.50;99.90;;;;;;5094699;28;20039;-83
2021/09/11 09:11:42;;;;;;;31.67;24.42;;;26.50;99.90;;;;;;5095759;28;20124;-84
2021/09/11 09:14:15;;;;;;;30.45;23.77;;;26.50;99.90;;;;;;5094933;28;20032;-84
2021/09/11 09:16:41;;;;;;;27.73;23.77;;;26.50;99.90;;;;;;5077820;28;20388;-83
2021/09/11 09:19:16;;;;;;;30.38;23.17;;;26.50;99.90;;;;;;5095749;28;20063;-83
2021/09/11 09:21:44;;;;;;;28.02;22.83;;;26.50;99.90;;;;;;5095776;28;20016;-83
2021/09/11 09:24:11;;;;;;;33.85;25.33;;;26.50;99.90;;;;;;5095945;28;20103;-84
2021/09/11 09:26:54;;;;;;;31.42;23.17;;;26.50;99.90;;;;;;5095576;28;20058;-84
2021/09/11 09:29:22;;;;;;;29.30;22.20;;;26.50;99.90;;;;;;5096199;28;20063;-84
2021/09/11 09:31:50;;;;;;;28.23;22.98;;;26.50;99.90;;;;;;5094228;28;20108;-84
2021/09/11 09:34:39;;;;;;;29.58;22.55;;;26.50;99.90;;;;;;5094690;28;20089;-84
2021/09/11 09:37:13;;;;;;;28.77;23.00;;;26.50;99.90;;;;;;5094499;28;20105;-83
2021/09/11 09:39:39;;;;;;;26.23;21.83;;;26.50;99.90;;;;;;5094176;28;20035;-84
2021/09/11 09:42:05;;;;;;;29.40;23.50;;;26.50;99.90;;;;;;5094323;28;20361;-83
2021/09/11 09:44:40;;;;;;;29.38;22.75;;;26.60;99.90;;;;;;5094322;28;20051;-84
2021/09/11 09:47:06;;;;;;;27.05;21.23;;;26.50;99.90;;;;;;5095420;28;20046;-83
2021/09/11 09:49:31;;;;;;;29.38;22.58;;;26.50;99.90;;;;;;5094943;28;20533;-84
2021/09/11 09:51:58;;;;;;;25.58;21.13;;;26.50;99.90;;;;;;5077439;28;20028;-83
2021/09/11 09:54:25;;;;;;;26.73;21.45;;;26.50;99.90;;;;;;5095851;28;20046;-83
2021/09/11 09:56:51;;;;;;;27.52;20.60;;;26.50;99.90;;;;;;5095259;28;20089;-83
2021/09/11 09:59:17;;;;;;;25.77;20.88;;;26.60;99.90;;;;;;5077248;28;20036;-83
2021/09/11 10:01:44;;;;;;;25.10;20.08;;;26.50;99.90;;;;;;5094937;28;20028;-84
2021/09/11 10:04:17;;;;;;;25.00;19.65;;;26.50;99.90;;;;;;5095123;28;20090;-84
2021/09/11 10:06:47;;;;;;;26.45;20.25;;;26.50;99.90;;;;;;5094722;28;20020;-83
2021/09/11 10:09:14;;;;;;;23.88;19.98;;;26.50;99.90;;;;;;5095001;28;20024;-84
2021/09/11 10:11:49;;;;;;;22.58;18.58;;;26.50;99.90;;;;;;5094706;28;20039;-84
2021/09/11 10:14:17;;;;;;;24.77;19.65;;;26.50;99.90;;;;;;5094586;28;20466;-84
2021/09/11 10:16:45;;;;;;;23.48;19.73;;;26.50;99.90;;;;;;5093535;28;20043;-84
2021/09/11 10:19:14;;;;;;;26.00;20.42;;;26.50;99.90;;;;;;5094518;28;20056;-84
2021/09/11 10:21:39;;;;;;;24.52;19.80;;;26.50;99.90;;;;;;5093196;28;20378;-83
2021/09/11 10:24:14;;;;;;;21.05;17.38;;;26.50;99.90;;;;;;5094398;28;20024;-84
2021/09/11 10:26:50;;;;;;;21.20;18.00;;;26.50;99.90;;;;;;5094738;28;20095;-84
2021/09/11 10:29:44;;;;;;;22.67;18.67;;;26.50;99.90;;;;;;5094692;28;20470;-83
2021/09/11 10:32:23;;;;;;;20.60;17.35;;;26.50;99.90;;;;;;5093156;28;20367;-83
2021/09/11 10:34:53;;;;;;;21.65;17.90;;;26.50;99.90;;;;;;5094208;28;20035;-83
2021/09/11 10:37:40;;;;;;;18.50;16.52;;;26.50;99.90;;;;;;5094151;28;20426;-83
2021/09/11 10:40:28;;;;;;;19.85;16.05;;;26.50;99.90;;;;;;5094275;28;20032;-83
2021/09/11 10:43:12;;;;;;;19.65;16.52;;;26.50;99.90;;;;;;5094083;28;20031;-83
2021/09/11 10:45:53;;;;;;;19.27;16.40;;;26.50;99.90;;;;;;5092913;28;20158;-84
2021/09/11 10:48:49;;;;;;;19.13;15.77;;;26.50;99.90;;;;;;5092808;28;20485;-84
2021/09/11 10:51:33;;;;;;;20.20;16.35;;;26.50;99.90;;;;;;5094203;28;20028;-84
2021/09/11 10:54:07;;;;;;;17.10;14.48;;;26.50;99.90;;;;;;5092603;28;20027;-84
2021/09/11 10:56:41;;;;;;;15.77;14.07;;;26.50;99.90;;;;;;5092972;28;20428;-84
2021/09/11 10:59:19;;;;;;;17.63;14.13;;;26.60;99.90;;;;;;5092718;28;20391;-84
2021/09/11 11:01:57;;;;;;;18.35;14.38;;;26.50;99.90;;;;;;5093476;28;20028;-84
2021/09/11 11:04:28;;;;;;;17.02;13.73;;;26.50;99.90;;;;;;5093868;28;20107;-84
2021/09/11 11:06:56;;;;;;;17.27;14.68;;;26.50;99.90;;;;;;5075788;28;20028;-84
2021/09/11 11:09:22;;;;;;;16.70;13.45;;;26.60;99.90;;;;;;5092479;28;20023;-83
2021/09/11 11:11:49;;;;;;;17.65;13.82;;;26.60;99.90;;;;;;5092262;28;20389;-84
2021/09/11 11:14:15;;;;;;;15.25;12.68;;;26.50;99.90;;;;;;5092558;28;20024;-84
2021/09/11 11:17:00;;;;;;;16.77;13.38;;;26.50;99.90;;;;;;5092274;28;20024;-85
2021/09/11 11:19:29;;;;;;;15.38;12.73;;;26.50;99.90;;;;;;5093014;28;20535;-84
2021/09/11 11:22:02;;;;;;;15.13;12.95;;;26.60;99.90;;;;;;5092932;28;20024;-84
2021/09/11 11:24:36;;;;;;;15.10;12.70;;;26.50;99.90;;;;;;5093749;28;20085;-84
2021/09/11 11:27:07;;;;;;;16.08;12.73;;;26.50;99.90;;;;;;5092000;28;20110;-84
2021/09/11 11:29:34;;;;;;;15.00;11.77;;;26.50;99.90;;;;;;5093453;28;20036;-84
2021/09/11 11:32:01;;;;;;;14.82;12.20;;;26.50;99.90;;;;;;5093204;28;20028;-84
2021/09/11 11:34:28;;;;;;;13.80;11.77;;;26.50;99.90;;;;;;5092047;28;20378;-84
2021/09/11 11:36:56;;;;;;;14.23;11.93;;;26.60;99.90;;;;;;5092064;28;20040;-84
2021/09/11 11:39:26;;;;;;;14.02;11.63;;;26.60;99.90;;;;;;5093337;28;20027;-84
2021/09/11 11:42:00;;;;;;;12.88;11.23;;;26.60;99.90;;;;;;5091757;28;20024;-84
2021/09/11 11:44:27;;;;;;;16.48;12.95;;;26.60;99.90;;;;;;5092299;28;20047;-84
2021/09/11 11:47:32;;;;;;;12.60;10.57;;;26.60;99.90;;;;;;5093020;28;20043;-84
2021/09/11 11:49:58;;;;;;;12.60;11.30;;;26.50;99.90;;;;;;5091668;28;20050;-85
2021/09/11 11:52:26;;;;;;;13.70;11.38;;;26.60;99.90;;;;;;5091866;28;20533;-84
2021/09/11 11:54:52;;;;;;;13.50;11.50;;;26.60;99.90;;;;;;5091837;28;20024;-84
2021/09/11 11:57:21;;;;;;;11.70;10.32;;;26.60;99.90;;;;;;5091934;28;20043;-84
2021/09/11 11:59:59;;;;;;;12.10;9.98;;;26.60;99.90;;;;;;5092819;28;20092;-84
2021/09/11 12:02:29;;;;;;;12.10;9.65;;;26.60;99.90;;;;;;5091829;28;20063;-84
2021/09/11 12:05:11;;;;;;;11.07;9.90;;;26.60;99.90;;;;;;5092935;28;20035;-83
2021/09/11 12:07:37;;;;;;;10.45;9.38;;;26.60;99.90;;;;;;5092964;28;20026;-83
2021/09/11 12:10:03;;;;;;;11.48;9.57;;;26.60;99.90;;;;;;5091435;28;20032;-83
2021/09/11 12:12:49;;;;;;;11.25;9.48;;;26.60;99.90;;;;;;5075026;28;20035;-84
2021/09/11 12:15:23;;;;;;;11.65;9.80;;;26.60;99.90;;;;;;5093206;28;20028;-84
2021/09/11 12:18:07;;;;;;;;;;;26.60;99.90;;;;;;5091900;28;20104;-84
2021/09/11 12:20:44;;;;;;;11.10;9.18;;;26.60;99.90;;;;;;5092513;28;20242;-84
2021/09/11 12:23:18;;;;;;;9.93;8.85;;;26.60;99.90;;;;;;5091568;28;20418;-83
2021/09/11 12:25:56;;;;;;;;;;;26.60;99.90;;;;;;5093595;28;20541;-83
2021/09/11 12:28:39;;;;;;;11.18;9.35;;;26.60;99.90;;;;;;5091951;28;19935;-83
2021/09/11 12:31:20;;;;;;;10.82;9.10;;;26.60;99.90;;;;;;5091476;28;20505;-83
2021/09/11 12:34:22;;;;;;;10.10;8.85;;;26.60;99.90;;;;;;5091686;28;20129;-84